logo
Rechercher aéroport 
image banner adimage banner adimage banner ad
image banner ad

SWDN - Dianópolis

Situé à Dianópolis, Brazil

ICAO - SWDN, IATA - DNO

Données fournies par Airmate  

Information générale

Coordonnées: S11°35'43" W46°50'52"
Élévation : 2395 feet MSL.
Variation magnétique : -21° East
Voir autres Aéroports à Tocatins

Données opérationnelles

Special qualification required
Heure actuelle UTC:
Heure actuelle locale:
Météo à : - ( 0 km )
METAR: KI69 281336Z AUTO 29016G21KT 10SM SCT013 BKN060 OVC070 12/10 A2958 RMK AO1 T01230102
Voir NOTAMs / SUP AIP / TFR affectant cet aéroport [VIEW]
Fréquences de communication: [VIEW]

Pistes:

Identifiant RWYQFULongueur (ft)Largeur (ft)SurfaceLDA (ft)
10492198ASPH
28492198ASPH

Coordonnées de l'aéroport

Adresse: Dianópolis Brazil

Vue satellite de SWDN